Hauptseite
METAR-TAF:

METAR-TAF

Flughäfen :

Luxeuil-les-Bains, Frankreich

Militärflugplatz Luxeuil-Saint Sauveur

Breite: 47-47N, Länge: 006-21E, Höhe: 278 m

Beobachtung

Neuester Wetterbericht von vor 10 Minuten, um 19:00 UTC
Wind 2 kt aus unterschiedlichen Richtungen
Temperatur 4°C
Luftfeuchtigkeit 93%
Luftdruck 1017 hPa
Sichtweite: 9000 m

METAR: LFSX 211900Z AUTO VRB02KT 9000 NSC 04/03 Q1017 NOSIG

Zeit: 20:10 (19:10 UTC)

Prognose

Neuester Wetterbericht von vor 5 Stunden und 10 Minuten, um 14:00 UTC
Gültige Prognose vom 21 um 15 UTC bis 22 um 15 UTC
Wind 7 kt aus Süd/Südwest
Sichtweite 10 km oder mehr
keine Wolken unter 1500 m und keine Kumulonimbus oder Gewitterwolken
Wahrscheinlichkeit 40% :
Zeitweise
vom 21 um 21 UTC bis 22 um 06 UTC
Sichtweite: 3000 m
feuchter Dunst

TAF: LFSX 211400Z 2115/2215 20007KT CAVOK PROB40 TEMPO 2121/2206 3000 BR

Wetterbeobachtungen und Prognosen von mehr als 4000 Flughäfen (METAR und TAF Bericht).

Die verfügbaren Stationen werden durch gelbe und rote Markierungen auf der Karte dargestellt.

Führen Sie die Maus auf sie, um den Namen der Station zu sehen.

Darauf klicken, um die Beobachtung von Wetterbeobachtungen und Prognosen zu sehen.

Um die Karte zu ändern : klicken Sie auf den grünen Tasten mit einem schwarzen Kreuz Zum Vergrößern, auf den grünen Button mit einem Gedankenstrich zu verkleinern, oder auf die grünen Pfeile für benachbarte Karten.


METAR-TAF: